createdAt,value
2023-01-02T00:01:46.555Z,91.28
2023-01-02T00:04:13.720Z,91.31
2023-01-02T00:06:41.413Z,91.49
2023-01-02T00:09:09.818Z,91.04
2023-01-02T00:11:37.659Z,91.07
2023-01-02T00:14:04.872Z,91.01
2023-01-02T00:16:32.335Z,90.85
2023-01-02T00:19:00.754Z,90.88
2023-01-02T00:21:28.219Z,91.11
2023-01-02T00:23:55.667Z,91.35
2023-01-02T00:26:23.058Z,91.34
2023-01-02T00:28:50.549Z,91.37
2023-01-02T00:31:18.106Z,91.42
2023-01-02T00:33:47.546Z,91.00
2023-01-02T00:36:17.029Z,90.97
2023-01-02T00:38:44.660Z,91.00
2023-01-02T00:41:13.095Z,91.06
2023-01-02T00:43:40.665Z,91.15
2023-01-02T00:46:11.943Z,91.60
2023-01-02T00:48:40.445Z,92.38
2023-01-02T00:51:09.123Z,92.45
2023-01-02T00:53:37.935Z,92.90
2023-01-02T00:56:05.357Z,93.04
2023-01-02T00:58:32.560Z,93.34
2023-01-02T01:01:00.218Z,93.01
2023-01-02T01:03:27.472Z,92.97
2023-01-02T01:05:56.107Z,93.72
2023-01-02T01:08:25.537Z,93.94
2023-01-02T01:10:54.090Z,94.28
2023-01-02T01:13:21.475Z,94.61
2023-01-02T01:15:50.256Z,94.94
2023-01-02T01:18:17.456Z,95.45
2023-01-02T01:20:45.940Z,95.44
2023-01-02T01:23:15.459Z,95.43
2023-01-02T01:25:43.924Z,95.33
2023-01-02T01:28:11.334Z,95.08
2023-01-02T01:30:38.768Z,95.33
2023-01-02T01:33:06.301Z,95.08
2023-01-02T01:35:37.251Z,94.61
2023-01-02T01:38:05.783Z,94.76
2023-01-02T01:40:45.452Z,94.61
2023-01-02T01:43:15.851Z,94.68
2023-01-02T01:45:45.066Z,94.56
2023-01-02T01:48:16.967Z,94.79
2023-01-02T01:50:46.943Z,94.65
2023-01-02T01:53:18.455Z,94.54
2023-01-02T01:55:53.708Z,94.51
2023-01-02T01:58:33.910Z,94.68
2023-01-02T02:01:04.517Z,94.38
2023-01-02T02:03:34.688Z,94.04
2023-01-02T02:06:03.710Z,93.91
2023-01-02T02:08:56.313Z,93.70
2023-01-02T02:11:24.403Z,93.50
2023-01-02T02:13:52.105Z,93.26
2023-01-02T02:16:24.030Z,93.57
2023-01-02T02:19:22.593Z,93.13
2023-01-02T02:22:18.152Z,93.19
2023-01-02T02:25:16.552Z,92.92
2023-01-02T02:28:12.480Z,92.84
2023-01-02T02:31:05.420Z,92.80
2023-01-02T02:34:08.249Z,92.80
2023-01-02T02:36:43.394Z,92.84
2023-01-02T02:39:32.492Z,92.58
2023-01-02T02:42:26.183Z,92.38
2023-01-02T02:45:05.819Z,92.31
2023-01-02T02:47:58.760Z,92.13
2023-01-02T02:50:54.431Z,91.79
2023-01-02T02:53:28.815Z,92.06
2023-01-02T02:56:05.935Z,92.25
2023-01-02T02:58:34.750Z,92.04
2023-01-02T03:01:08.917Z,92.61
2023-01-02T03:03:35.987Z,93.09
2023-01-02T03:06:22.178Z,93.26
2023-01-02T03:09:08.343Z,94.05
2023-01-02T03:12:07.577Z,94.31
2023-01-02T03:14:45.873Z,95.22
2023-01-02T03:17:26.082Z,95.34
2023-01-02T03:20:02.158Z,95.34
2023-01-02T03:22:36.920Z,95.42
2023-01-02T03:25:12.162Z,95.59
2023-01-02T03:27:44.969Z,95.41
2023-01-02T03:30:19.466Z,95.14
2023-01-02T03:32:53.279Z,95.13
2023-01-02T03:35:27.469Z,94.86
2023-01-02T03:37:58.812Z,94.65
2023-01-02T03:40:36.371Z,94.63
2023-01-02T03:43:21.547Z,94.18
2023-01-02T03:46:05.129Z,94.06
2023-01-02T03:49:00.756Z,93.83
2023-01-02T03:51:28.340Z,93.41
2023-01-02T03:53:55.910Z,93.45
2023-01-02T03:56:59.451Z,93.71
2023-01-02T03:59:32.946Z,94.04
2023-01-02T04:02:04.899Z,93.61
2023-01-02T04:04:58.771Z,93.31
2023-01-02T04:07:46.348Z,93.38
2023-01-02T04:10:16.624Z,93.42
2023-01-02T04:12:51.131Z,93.11
2023-01-02T04:15:22.360Z,93.43
2023-01-02T04:18:01.455Z,92.89
2023-01-02T04:20:37.281Z,92.84
2023-01-02T04:23:17.787Z,92.18
2023-01-02T04:25:56.504Z,92.45
2023-01-02T04:28:28.433Z,92.23
2023-01-02T04:31:07.383Z,92.31
2023-01-02T04:33:40.377Z,92.28
2023-01-02T04:36:17.058Z,92.47
2023-01-02T04:38:46.469Z,92.90
2023-01-02T04:41:20.305Z,92.86
2023-01-02T04:43:48.748Z,92.79
2023-01-02T04:46:17.378Z,93.23
2023-01-02T04:48:44.837Z,93.39
2023-01-02T04:51:13.319Z,93.57
2023-01-02T04:53:40.803Z,93.77
2023-01-02T04:56:09.361Z,93.93
2023-01-02T04:58:36.668Z,93.68
2023-01-02T05:01:09.290Z,94.05
2023-01-02T05:03:43.733Z,93.57
2023-01-02T05:06:14.214Z,93.76
2023-01-02T05:08:42.190Z,93.71
2023-01-02T05:11:17.818Z,94.06
2023-01-02T05:13:45.409Z,93.97
2023-01-02T05:16:12.942Z,94.03
2023-01-02T05:18:40.166Z,93.71
2023-01-02T05:21:31.083Z,93.40
2023-01-02T05:24:01.250Z,93.29
2023-01-02T05:26:33.273Z,93.43
2023-01-02T05:29:01.592Z,93.66
2023-01-02T05:31:29.232Z,93.98
2023-01-02T05:33:58.969Z,94.22
2023-01-02T05:36:27.919Z,94.33
2023-01-02T05:38:56.803Z,94.58
2023-01-02T05:41:24.474Z,94.94
2023-01-02T05:43:55.101Z,95.20
2023-01-02T05:46:23.695Z,95.01
2023-01-02T05:48:51.195Z,95.20
2023-01-02T05:51:18.963Z,95.18
2023-01-02T05:53:46.135Z,95.32
2023-01-02T05:56:21.527Z,95.07
2023-01-02T05:58:50.780Z,95.16
2023-01-02T06:01:26.072Z,95.16
2023-01-02T06:03:56.420Z,95.43
2023-01-02T06:06:31.474Z,95.30
2023-01-02T06:09:00.570Z,95.37
2023-01-02T06:11:31.351Z,95.23
2023-01-02T06:13:58.709Z,94.90
2023-01-02T06:16:26.826Z,95.08
2023-01-02T06:18:53.999Z,95.02
2023-01-02T06:21:22.277Z,94.89
2023-01-02T06:23:54.388Z,95.15
2023-01-02T06:26:22.367Z,95.23
2023-01-02T06:28:51.983Z,95.38
2023-01-02T06:31:21.316Z,95.87
2023-01-02T06:33:59.493Z,96.09
2023-01-02T06:36:29.463Z,96.10
2023-01-02T06:38:59.199Z,96.25
2023-01-02T06:41:26.938Z,96.46
2023-01-02T06:43:54.320Z,96.20
2023-01-02T06:46:24.185Z,96.20
2023-01-02T06:48:52.816Z,95.95
2023-01-02T06:51:24.397Z,95.59
2023-01-02T06:53:52.966Z,95.79
2023-01-02T06:56:22.396Z,95.45
2023-01-02T06:58:55.916Z,95.11
2023-01-02T07:01:23.740Z,94.51
2023-01-02T07:03:51.075Z,94.56
2023-01-02T07:06:20.638Z,93.94
2023-01-02T07:08:48.966Z,93.68
2023-01-02T07:11:25.240Z,93.72
2023-01-02T07:13:54.512Z,93.02
2023-01-02T07:16:24.402Z,92.73
2023-01-02T07:18:54.175Z,92.71
2023-01-02T07:21:21.469Z,92.49
2023-01-02T07:23:48.920Z,92.29
2023-01-02T07:26:16.577Z,92.38
2023-01-02T07:28:43.768Z,92.86
2023-01-02T07:31:19.609Z,93.21
2023-01-02T07:33:58.390Z,93.63
2023-01-02T07:36:25.693Z,93.93
2023-01-02T07:38:55.987Z,94.10
2023-01-02T07:41:25.513Z,94.59
2023-01-02T07:43:55.494Z,94.61
2023-01-02T07:46:28.743Z,94.41
2023-01-02T07:48:55.860Z,94.48
2023-01-02T07:51:26.968Z,94.18
2023-01-02T07:53:54.928Z,93.98
2023-01-02T07:56:22.012Z,93.83
2023-01-02T07:58:49.116Z,93.28
2023-01-02T08:01:16.647Z,93.18
2023-01-02T08:03:43.784Z,92.55
2023-01-02T08:06:17.391Z,92.30
2023-01-02T08:08:44.847Z,91.83
2023-01-02T08:11:14.419Z,91.57
2023-01-02T08:13:41.870Z,90.91
2023-01-02T08:16:17.067Z,90.68
2023-01-02T08:18:45.027Z,90.30
2023-01-02T08:21:12.690Z,89.69
2023-01-02T08:23:41.210Z,89.43
2023-01-02T08:26:10.284Z,88.71
2023-01-02T08:28:40.038Z,88.18
2023-01-02T08:31:13.532Z,87.61
2023-01-02T08:33:42.002Z,87.06
2023-01-02T08:36:10.277Z,86.57
2023-01-02T08:38:37.912Z,86.15
2023-01-02T08:41:06.935Z,85.15
2023-01-02T08:43:35.836Z,84.59
2023-01-02T08:46:05.304Z,83.79
2023-01-02T08:48:32.746Z,83.48
2023-01-02T08:51:00.137Z,82.10
2023-01-02T08:53:27.447Z,80.98
2023-01-02T08:55:54.550Z,79.97
2023-01-02T08:58:23.955Z,78.77
2023-01-02T09:00:52.938Z,77.58
2023-01-02T09:03:20.339Z,76.39
2023-01-02T09:05:47.888Z,74.91
2023-01-02T09:08:16.244Z,72.49
2023-01-02T09:10:43.314Z,70.02
2023-01-02T09:13:10.648Z,68.06
2023-01-02T09:15:37.882Z,68.19
2023-01-02T09:18:06.195Z,68.27
2023-01-02T09:20:34.574Z,67.44
2023-01-02T09:23:02.025Z,67.96
2023-01-02T09:25:29.515Z,66.16
2023-01-02T09:27:57.039Z,66.30
2023-01-02T09:30:25.249Z,66.72
2023-01-02T09:32:52.312Z,65.41
2023-01-02T09:35:19.381Z,65.36
2023-01-02T09:37:46.815Z,65.04
2023-01-02T09:40:14.880Z,65.85
2023-01-02T09:42:45.348Z,65.64
2023-01-02T09:45:14.381Z,64.02
2023-01-02T09:47:44.543Z,63.13
2023-01-02T09:50:18.824Z,63.05
2023-01-02T09:52:53.662Z,62.55
2023-01-02T09:55:43.714Z,63.42
2023-01-02T09:58:41.727Z,62.38
2023-01-02T10:01:23.256Z,62.03
2023-01-02T10:04:18.287Z,59.88
2023-01-02T10:06:57.816Z,59.11
2023-01-02T10:09:47.817Z,61.01
2023-01-02T10:12:32.585Z,62.19
2023-01-02T10:15:04.614Z,62.31
2023-01-02T10:17:39.906Z,63.88
2023-01-02T10:20:30.695Z,62.41
2023-01-02T10:23:06.117Z,59.05
2023-01-02T10:26:14.223Z,59.65
2023-01-02T10:28:56.258Z,61.39
2023-01-02T10:31:32.121Z,60.99
2023-01-02T10:34:01.579Z,60.63
2023-01-02T10:36:32.316Z,61.14
2023-01-02T10:39:22.620Z,63.69
2023-01-02T10:41:57.796Z,62.69
2023-01-02T10:44:31.478Z,63.65
2023-01-02T10:47:06.842Z,61.27
2023-01-02T10:49:38.079Z,62.72
2023-01-02T10:52:15.265Z,62.04
2023-01-02T10:55:03.540Z,62.42
2023-01-02T10:57:51.311Z,62.39
2023-01-02T11:00:22.532Z,63.91
2023-01-02T11:03:14.135Z,64.19
2023-01-02T11:05:50.374Z,65.58
2023-01-02T11:08:22.539Z,63.58
2023-01-02T11:10:55.812Z,63.17
2023-01-02T11:13:23.022Z,64.54
2023-01-02T11:15:57.044Z,64.79
2023-01-02T11:18:31.178Z,64.47
2023-01-02T11:21:04.636Z,65.55
2023-01-02T11:23:37.702Z,67.91
2023-01-02T11:26:11.005Z,67.43
2023-01-02T11:28:41.280Z,64.68
2023-01-02T11:31:11.708Z,64.30
2023-01-02T11:33:39.025Z,63.46
2023-01-02T11:36:06.147Z,63.83
2023-01-02T11:38:44.415Z,63.86
2023-01-02T11:45:08.458Z,65.14
2023-01-02T11:47:57.886Z,63.39
2023-01-02T11:50:27.180Z,63.04
2023-01-02T11:52:55.917Z,62.29
2023-01-02T11:55:39.660Z,62.39
2023-01-02T11:58:27.345Z,61.87
2023-01-02T12:01:17.530Z,64.29
2023-01-02T12:03:44.794Z,64.25
2023-01-02T12:06:19.617Z,64.70
2023-01-02T12:08:53.259Z,64.74
2023-01-02T12:11:57.012Z,65.01
2023-01-02T12:14:42.768Z,62.73
2023-01-02T12:17:48.924Z,62.50
2023-01-02T12:20:27.644Z,60.40
2023-01-02T12:23:14.034Z,63.27
2023-01-02T12:25:54.699Z,65.33
2023-01-02T12:28:50.764Z,63.71
2023-01-02T12:31:46.460Z,63.33
2023-01-02T12:34:44.150Z,63.00
2023-01-02T12:37:21.096Z,61.30
2023-01-02T12:39:58.406Z,62.19
2023-01-02T12:42:25.439Z,61.20
2023-01-02T12:44:58.079Z,61.50
2023-01-02T12:47:34.469Z,62.88
2023-01-02T12:50:33.652Z,62.18
2023-01-02T12:53:09.749Z,60.31
2023-01-02T12:56:08.121Z,61.38
2023-01-02T12:58:52.556Z,62.28
2023-01-02T13:01:44.586Z,62.11
2023-01-02T13:04:20.619Z,61.22
2023-01-02T13:07:35.998Z,61.79
2023-01-02T13:10:05.984Z,62.79
2023-01-02T13:12:36.153Z,63.75
2023-01-02T13:15:17.233Z,63.69
2023-01-02T13:18:08.354Z,62.39
2023-01-02T13:20:44.069Z,60.39
2023-01-02T13:23:27.419Z,60.74
2023-01-02T13:25:59.959Z,60.80
2023-01-02T13:28:29.675Z,59.06
2023-01-02T13:31:35.429Z,58.31
2023-01-02T13:33:50.292Z,58.63
2023-01-02T13:36:27.024Z,60.42
2023-01-02T13:39:03.605Z,61.00
2023-01-02T13:41:58.154Z,62.11
2023-01-02T13:44:36.784Z,62.70
2023-01-02T13:47:46.862Z,63.96
2023-01-02T13:50:30.417Z,61.85
2023-01-02T13:53:10.389Z,62.53
2023-01-02T13:55:40.960Z,64.04
2023-01-02T13:58:20.805Z,64.95
2023-01-02T14:00:56.597Z,65.04
2023-01-02T14:03:24.210Z,66.07
2023-01-02T14:06:00.800Z,68.93
2023-01-02T14:08:34.222Z,71.00
2023-01-02T14:11:13.685Z,71.91
2023-01-02T14:13:48.599Z,74.20
2023-01-02T14:16:44.626Z,74.89
2023-01-02T14:19:16.902Z,75.25
2023-01-02T14:21:59.420Z,75.57
2023-01-02T14:24:39.115Z,75.88
2023-01-02T14:27:24.303Z,75.79
2023-01-02T14:29:57.398Z,76.57
2023-01-02T14:32:39.497Z,77.41
2023-01-02T14:35:32.619Z,78.85
2023-01-02T14:38:23.985Z,80.34
2023-01-02T14:40:52.441Z,81.20
2023-01-02T14:43:37.942Z,82.23
2023-01-02T14:46:12.476Z,82.89
2023-01-02T14:49:02.318Z,83.80
2023-01-02T14:52:01.557Z,84.12
2023-01-02T14:54:52.094Z,84.89
2023-01-02T14:57:33.421Z,85.36
2023-01-02T15:00:04.863Z,85.34
2023-01-02T15:02:45.127Z,85.82
2023-01-02T15:05:21.440Z,85.88
2023-01-02T15:07:53.295Z,86.16
2023-01-02T15:10:23.151Z,86.79
2023-01-02T15:13:09.244Z,87.19
2023-01-02T15:15:42.137Z,87.50
2023-01-02T15:18:29.538Z,87.98
2023-01-02T15:21:08.872Z,88.19
2023-01-02T15:23:44.031Z,88.10
2023-01-02T15:26:33.566Z,89.13
2023-01-02T15:29:06.172Z,89.26
2023-01-02T15:31:34.164Z,89.45
2023-01-02T15:34:02.756Z,89.21
2023-01-02T15:36:36.365Z,89.29
2023-01-02T15:39:14.651Z,89.15
2023-01-02T15:41:49.525Z,89.48
2023-01-02T15:44:48.251Z,90.37
2023-01-02T15:47:18.186Z,91.22
2023-01-02T15:49:48.658Z,91.72
2023-01-02T15:52:29.828Z,92.00
2023-01-02T15:54:58.934Z,92.20
2023-01-02T15:57:29.623Z,92.41
2023-01-02T15:59:57.058Z,92.38
2023-01-02T16:02:57.593Z,92.43
2023-01-02T16:05:24.872Z,92.27
2023-01-02T16:07:55.784Z,92.12
2023-01-02T16:10:26.026Z,91.94
2023-01-02T16:13:41.157Z,91.96
2023-01-02T16:16:15.638Z,92.67
2023-01-02T16:18:48.080Z,93.06
2023-01-02T16:21:17.511Z,93.34
2023-01-02T16:23:52.758Z,93.48
2023-01-02T16:26:23.658Z,93.43
2023-01-02T16:28:51.524Z,93.35
2023-01-02T16:31:25.046Z,92.81
2023-01-02T16:33:52.556Z,92.10
2023-01-02T16:36:25.889Z,91.96
2023-01-02T16:39:01.743Z,92.61
2023-01-02T16:41:35.100Z,93.37
2023-01-02T16:44:14.822Z,94.07
2023-01-02T16:46:43.500Z,93.95
2023-01-02T16:49:17.349Z,94.03
2023-01-02T16:51:50.767Z,94.01
2023-01-02T16:54:19.949Z,93.29
2023-01-02T16:56:48.942Z,92.95
2023-01-02T16:59:16.269Z,92.59
2023-01-02T17:01:43.986Z,92.37
2023-01-02T17:04:15.521Z,92.41
2023-01-02T17:06:43.018Z,92.00
2023-01-02T17:09:10.310Z,91.91
2023-01-02T17:11:59.126Z,91.97
2023-01-02T17:14:36.552Z,91.99
2023-01-02T17:17:04.036Z,92.10
2023-01-02T17:19:31.561Z,92.11
2023-01-02T17:22:01.045Z,92.09
2023-01-02T17:24:28.511Z,92.04
2023-01-02T17:26:56.000Z,92.40
2023-01-02T17:29:23.494Z,92.14
2023-01-02T17:31:51.110Z,92.36
2023-01-02T17:34:18.330Z,92.71
2023-01-02T17:36:46.913Z,91.83
2023-01-02T17:39:14.752Z,91.06
2023-01-02T17:41:42.237Z,90.93
2023-01-02T17:44:09.695Z,91.68
2023-01-02T17:49:24.638Z,92.74
2023-01-02T17:51:53.101Z,92.37
2023-01-02T17:54:20.680Z,92.04
2023-01-02T17:56:48.104Z,92.03
2023-01-02T17:59:19.493Z,91.64
2023-01-02T18:01:48.436Z,91.73
2023-01-02T18:04:16.348Z,91.51
2023-01-02T18:06:44.028Z,91.97
2023-01-02T18:09:11.658Z,92.41
2023-01-02T18:11:39.113Z,92.62
2023-01-02T18:14:20.604Z,93.75
2023-01-02T18:16:48.286Z,93.70
2023-01-02T18:19:33.440Z,94.47
2023-01-02T18:22:01.048Z,95.37
2023-01-02T18:24:32.153Z,95.75
2023-01-02T18:27:14.755Z,95.75
2023-01-02T18:29:42.938Z,96.12
2023-01-02T18:32:29.298Z,95.91
2023-01-02T18:34:59.708Z,95.40
2023-01-02T18:37:30.015Z,95.16
2023-01-02T18:40:01.340Z,95.64
2023-01-02T18:42:33.790Z,95.74
2023-01-02T18:45:01.661Z,95.79
2023-01-02T18:47:33.714Z,96.23
2023-01-02T18:50:18.304Z,96.85
2023-01-02T18:52:52.961Z,97.12
2023-01-02T18:55:27.420Z,97.27
2023-01-02T18:58:01.459Z,97.55
2023-01-02T19:00:34.689Z,98.02
2023-01-02T19:03:13.693Z,98.01
2023-01-02T19:05:45.442Z,98.35
2023-01-02T19:08:15.661Z,98.72
2023-01-02T19:10:46.851Z,98.70
2023-01-02T19:13:20.671Z,97.82
2023-01-02T19:15:59.530Z,97.03
2023-01-02T19:18:43.221Z,96.52
2023-01-02T19:21:46.280Z,95.65
2023-01-02T19:24:24.645Z,95.72
2023-01-02T19:26:56.868Z,95.60
2023-01-02T19:29:27.265Z,95.27
2023-01-02T19:32:29.729Z,94.88
2023-01-02T19:35:02.907Z,94.89
2023-01-02T19:37:45.563Z,94.78
2023-01-02T19:40:22.208Z,95.28
2023-01-02T19:42:54.464Z,95.90
2023-01-02T19:45:24.499Z,97.06
2023-01-02T19:47:54.323Z,97.69
2023-01-02T19:50:28.291Z,98.49
2023-01-02T19:52:55.820Z,98.82
2023-01-02T19:55:23.422Z,98.97
2023-01-02T19:57:51.298Z,99.60
2023-01-02T20:00:20.271Z,99.83
2023-01-02T20:02:52.137Z,100.00
2023-01-02T20:05:22.767Z,100.00
2023-01-02T20:07:52.890Z,100.00
2023-01-02T20:10:22.814Z,100.00
2023-01-02T20:12:51.538Z,100.00
2023-01-02T20:15:25.639Z,100.00
2023-01-02T20:17:55.251Z,100.00
2023-01-02T20:20:28.225Z,100.00
2023-01-02T20:22:57.315Z,100.00
2023-01-02T20:25:26.893Z,100.00
2023-01-02T20:27:56.744Z,100.00
2023-01-02T20:30:37.924Z,100.00
2023-01-02T20:33:07.438Z,100.00
2023-01-02T20:35:37.919Z,100.00
2023-01-02T20:38:05.810Z,100.00
2023-01-02T20:40:34.842Z,100.00
2023-01-02T20:43:02.828Z,100.00
2023-01-02T20:45:38.554Z,100.00
2023-01-02T20:48:06.811Z,100.00
2023-01-02T20:50:34.786Z,100.00
2023-01-02T20:53:03.539Z,100.00
2023-01-02T20:55:31.438Z,100.00
2023-01-02T20:57:59.698Z,100.00
2023-01-02T21:00:29.241Z,100.00
2023-01-02T21:02:57.340Z,100.00
2023-01-02T21:05:26.585Z,100.00
2023-01-02T21:07:54.067Z,100.00
2023-01-02T21:10:21.726Z,100.00
2023-01-02T21:13:08.126Z,100.00
2023-01-02T21:15:55.166Z,100.00
2023-01-02T21:18:25.492Z,100.00
2023-01-02T21:21:05.820Z,100.00
2023-01-02T21:23:35.792Z,100.00
2023-01-02T21:26:07.504Z,100.00
2023-01-02T21:28:36.991Z,100.00
2023-01-02T21:31:05.406Z,100.00
2023-01-02T21:33:34.144Z,99.15
2023-01-02T21:36:03.714Z,97.46
2023-01-02T21:38:31.618Z,96.21
2023-01-02T21:41:19.173Z,96.67
2023-01-02T21:43:52.635Z,97.28
2023-01-02T21:46:21.625Z,98.03
2023-01-02T21:48:49.023Z,99.91
2023-01-02T21:51:16.462Z,99.93
2023-01-02T21:53:44.321Z,99.22
2023-01-02T21:56:17.709Z,98.11
2023-01-02T21:58:45.160Z,97.97
2023-01-02T22:01:18.828Z,99.07
2023-01-02T22:03:46.140Z,100.00
2023-01-02T22:06:13.256Z,100.00
2023-01-02T22:08:40.760Z,100.00
2023-01-02T22:11:27.630Z,100.00
2023-01-02T22:13:57.310Z,100.00
2023-01-02T22:16:24.664Z,100.00
2023-01-02T22:18:52.075Z,100.00
2023-01-02T22:21:19.607Z,100.00
2023-01-02T22:23:47.052Z,98.87
2023-01-02T22:26:14.627Z,97.74
2023-01-02T22:28:44.636Z,95.83
2023-01-02T22:31:12.277Z,93.67
2023-01-02T22:33:39.817Z,91.67
2023-01-02T22:36:09.335Z,90.74
2023-01-02T22:38:43.934Z,89.55
2023-01-02T22:41:22.356Z,88.53
2023-01-02T22:43:49.794Z,88.03
2023-01-02T22:46:30.491Z,87.17
2023-01-02T22:48:58.485Z,86.06
2023-01-02T22:51:57.634Z,84.98
2023-01-02T22:54:17.184Z,84.17
2023-01-02T22:56:44.820Z,84.15
2023-01-02T22:59:12.707Z,83.26
2023-01-02T23:01:42.341Z,83.32
2023-01-02T23:04:23.672Z,82.83
2023-01-02T23:07:22.971Z,82.14
2023-01-02T23:09:39.632Z,81.82
2023-01-02T23:12:07.403Z,81.82
2023-01-02T23:14:35.588Z,82.35
2023-01-02T23:17:22.180Z,82.65
2023-01-02T23:19:50.153Z,82.96
2023-01-02T23:22:17.834Z,82.90
2023-01-02T23:24:44.979Z,83.40
2023-01-02T23:27:18.923Z,83.60
2023-01-02T23:29:46.453Z,84.33
2023-01-02T23:32:14.698Z,84.17
2023-01-02T23:34:42.902Z,84.38
2023-01-02T23:37:10.960Z,85.47
2023-01-02T23:39:38.435Z,86.23
2023-01-02T23:42:07.920Z,86.67
2023-01-02T23:44:35.472Z,86.14
2023-01-02T23:47:08.656Z,86.04
2023-01-02T23:49:37.466Z,85.84
2023-01-02T23:52:05.204Z,86.08
2023-01-02T23:54:33.508Z,86.21
2023-01-02T23:57:02.072Z,85.50
2023-01-02T23:59:31.452Z,85.26
